sensor_id;sensor_type;location;lat;lon;timestamp;pressure;altitude;pressure_sealevel;temperature;humidity
73633;BME280;61927;50.080;14.418;2023-08-01T00:00:16;98508.59;;;19.82;60.88
73633;BME280;61927;50.080;14.418;2023-08-01T00:03:02;98503.75;;;19.77;61.65
73633;BME280;61927;50.080;14.418;2023-08-01T00:05:28;98501.91;;;19.78;61.65
73633;BME280;61927;50.080;14.418;2023-08-01T00:07:53;98491.31;;;19.76;62.12
73633;BME280;61927;50.080;14.418;2023-08-01T00:10:19;98487.94;;;19.74;61.84
73633;BME280;61927;50.080;14.418;2023-08-01T00:12:44;98486.97;;;19.67;62.29
73633;BME280;61927;50.080;14.418;2023-08-01T00:15:10;98482.28;;;19.61;62.88
73633;BME280;61927;50.080;14.418;2023-08-01T00:17:36;98473.38;;;19.60;63.04
73633;BME280;61927;50.080;14.418;2023-08-01T00:20:02;98463.63;;;19.59;63.07
73633;BME280;61927;50.080;14.418;2023-08-01T00:22:28;98468.53;;;19.56;62.98
73633;BME280;61927;50.080;14.418;2023-08-01T00:24:54;98468.53;;;19.56;63.80
73633;BME280;61927;50.080;14.418;2023-08-01T00:27:19;98462.66;;;19.52;64.04
73633;BME280;61927;50.080;14.418;2023-08-01T00:29:45;98460.28;;;19.49;64.43
73633;BME280;61927;50.080;14.418;2023-08-01T00:32:11;98449.38;;;19.43;64.99
73633;BME280;61927;50.080;14.418;2023-08-01T00:34:37;98451.41;;;19.41;64.73
73633;BME280;61927;50.080;14.418;2023-08-01T00:37:02;98436.63;;;19.36;65.31
73633;BME280;61927;50.080;14.418;2023-08-01T00:39:28;98433.94;;;19.36;65.66
73633;BME280;61927;50.080;14.418;2023-08-01T00:41:54;98420.50;;;19.36;65.81
73633;BME280;61927;50.080;14.418;2023-08-01T00:44:20;98403.69;;;19.34;65.87
73633;BME280;61927;50.080;14.418;2023-08-01T00:46:45;98414.63;;;19.33;66.80
73633;BME280;61927;50.080;14.418;2023-08-01T00:49:12;98407.44;;;19.25;67.43
73633;BME280;61927;50.080;14.418;2023-08-01T00:51:38;98397.03;;;19.22;67.94
73633;BME280;61927;50.080;14.418;2023-08-01T00:54:03;98399.06;;;19.20;67.89
73633;BME280;61927;50.080;14.418;2023-08-01T00:56:29;98402.28;;;19.16;68.21
73633;BME280;61927;50.080;14.418;2023-08-01T00:58:55;98398.59;;;19.09;68.26
73633;BME280;61927;50.080;14.418;2023-08-01T01:01:20;98401.13;;;19.10;69.04
73633;BME280;61927;50.080;14.418;2023-08-01T01:03:47;98402.66;;;19.04;68.48
73633;BME280;61927;50.080;14.418;2023-08-01T01:06:24;98401.84;;;18.96;68.60
73633;BME280;61927;50.080;14.418;2023-08-01T01:08:50;98393.13;;;18.94;69.17
73633;BME280;61927;50.080;14.418;2023-08-01T01:11:16;98392.63;;;18.90;68.64
73633;BME280;61927;50.080;14.418;2023-08-01T01:13:41;98392.81;;;18.81;69.14
73633;BME280;61927;50.080;14.418;2023-08-01T01:16:07;98392.31;;;18.77;69.73
73633;BME280;61927;50.080;14.418;2023-08-01T01:18:32;98381.25;;;18.72;69.61
73633;BME280;61927;50.080;14.418;2023-08-01T01:20:58;98379.91;;;18.76;69.97
73633;BME280;61927;50.080;14.418;2023-08-01T01:23:25;98379.72;;;18.78;69.57
73633;BME280;61927;50.080;14.418;2023-08-01T01:25:52;98371.00;;;18.76;69.17
73633;BME280;61927;50.080;14.418;2023-08-01T01:28:20;98373.50;;;18.77;68.77
73633;BME280;61927;50.080;14.418;2023-08-01T01:30:45;98368.84;;;18.71;68.79
73633;BME280;61927;50.080;14.418;2023-08-01T01:33:12;98367.81;;;18.72;68.86
73633;BME280;61927;50.080;14.418;2023-08-01T01:35:40;98373.88;;;18.74;69.02
73633;BME280;61927;50.080;14.418;2023-08-01T01:38:06;98362.28;;;18.74;68.73
73633;BME280;61927;50.080;14.418;2023-08-01T01:40:32;98355.72;;;18.76;68.77
73633;BME280;61927;50.080;14.418;2023-08-01T01:42:59;98357.56;;;18.76;68.50
73633;BME280;61927;50.080;14.418;2023-08-01T01:45:25;98348.66;;;18.75;68.49
73633;BME280;61927;50.080;14.418;2023-08-01T01:47:50;98337.91;;;18.75;68.66
73633;BME280;61927;50.080;14.418;2023-08-01T01:50:16;98331.03;;;18.73;68.71
73633;BME280;61927;50.080;14.418;2023-08-01T01:52:42;98322.97;;;18.73;68.38
73633;BME280;61927;50.080;14.418;2023-08-01T01:55:07;98318.25;;;18.75;68.55
73633;BME280;61927;50.080;14.418;2023-08-01T01:57:33;98315.41;;;18.76;68.31
73633;BME280;61927;50.080;14.418;2023-08-01T02:00:02;98312.19;;;18.81;68.30
73633;BME280;61927;50.080;14.418;2023-08-01T02:02:27;98310.50;;;18.80;67.61
73633;BME280;61927;50.080;14.418;2023-08-01T02:04:53;98303.63;;;18.77;68.10
73633;BME280;61927;50.080;14.418;2023-08-01T02:07:18;98299.13;;;18.69;68.59
73633;BME280;61927;50.080;14.418;2023-08-01T02:09:44;98284.56;;;18.64;68.56
73633;BME280;61927;50.080;14.418;2023-08-01T02:12:10;98277.50;;;18.63;69.27
73633;BME280;61927;50.080;14.418;2023-08-01T02:14:39;98283.38;;;18.66;69.04
73633;BME280;61927;50.080;14.418;2023-08-01T02:17:05;98287.56;;;18.69;68.64
73633;BME280;61927;50.080;14.418;2023-08-01T02:19:30;98274.94;;;18.69;68.50
73633;BME280;61927;50.080;14.418;2023-08-01T02:21:56;98273.81;;;18.64;69.11
73633;BME280;61927;50.080;14.418;2023-08-01T02:24:21;98268.25;;;18.57;69.21
73633;BME280;61927;50.080;14.418;2023-08-01T02:26:48;98276.50;;;18.56;70.03
73633;BME280;61927;50.080;14.418;2023-08-01T02:29:14;98279.00;;;18.57;70.01
73633;BME280;61927;50.080;14.418;2023-08-01T02:31:40;98273.97;;;18.62;70.20
73633;BME280;61927;50.080;14.418;2023-08-01T02:34:05;98285.88;;;18.68;69.91
73633;BME280;61927;50.080;14.418;2023-08-01T02:36:31;98275.66;;;18.63;70.63
73633;BME280;61927;50.080;14.418;2023-08-01T02:38:57;98282.69;;;18.64;71.12
73633;BME280;61927;50.080;14.418;2023-08-01T02:41:22;98272.63;;;18.66;70.75
73633;BME280;61927;50.080;14.418;2023-08-01T02:43:48;98274.28;;;18.59;71.22
73633;BME280;61927;50.080;14.418;2023-08-01T02:46:13;98267.75;;;18.54;71.79
73633;BME280;61927;50.080;14.418;2023-08-01T02:48:39;98261.56;;;18.53;72.04
73633;BME280;61927;50.080;14.418;2023-08-01T02:51:05;98254.50;;;18.52;72.20
73633;BME280;61927;50.080;14.418;2023-08-01T02:53:37;98242.56;;;18.55;72.46
73633;BME280;61927;50.080;14.418;2023-08-01T02:56:02;98242.22;;;18.58;72.16
73633;BME280;61927;50.080;14.418;2023-08-01T02:58:30;98234.69;;;18.53;72.01
73633;BME280;61927;50.080;14.418;2023-08-01T03:00:55;98236.06;;;18.49;72.30
73633;BME280;61927;50.080;14.418;2023-08-01T03:03:21;98232.69;;;18.47;71.81
73633;BME280;61927;50.080;14.418;2023-08-01T03:05:47;98226.16;;;18.50;72.88
73633;BME280;61927;50.080;14.418;2023-08-01T03:08:13;98235.88;;;18.51;71.89
73633;BME280;61927;50.080;14.418;2023-08-01T03:10:38;98237.03;;;18.56;72.26
73633;BME280;61927;50.080;14.418;2023-08-01T03:13:04;98231.81;;;18.55;71.28
73633;BME280;61927;50.080;14.418;2023-08-01T03:15:30;98227.66;;;18.52;72.09
73633;BME280;61927;50.080;14.418;2023-08-01T03:17:55;98236.72;;;18.51;71.47
73633;BME280;61927;50.080;14.418;2023-08-01T03:20:21;98236.72;;;18.51;72.89
73633;BME280;61927;50.080;14.418;2023-08-01T03:22:48;98231.34;;;18.51;73.89
73633;BME280;61927;50.080;14.418;2023-08-01T03:25:13;98227.13;;;18.57;73.33
73633;BME280;61927;50.080;14.418;2023-08-01T03:27:39;98227.59;;;18.60;73.22
73633;BME280;61927;50.080;14.418;2023-08-01T03:30:05;98220.72;;;18.58;74.00
73633;BME280;61927;50.080;14.418;2023-08-01T03:32:35;98212.19;;;18.54;73.36
73633;BME280;61927;50.080;14.418;2023-08-01T03:35:00;98216.91;;;18.52;72.62
73633;BME280;61927;50.080;14.418;2023-08-01T03:37:26;98213.06;;;18.47;72.80
73633;BME280;61927;50.080;14.418;2023-08-01T03:39:52;98212.56;;;18.43;72.89
73633;BME280;61927;50.080;14.418;2023-08-01T03:42:17;98201.69;;;18.36;73.06
73633;BME280;61927;50.080;14.418;2023-08-01T03:44:43;98201.19;;;18.33;73.46
73633;BME280;61927;50.080;14.418;2023-08-01T03:47:08;98197.19;;;18.29;73.03
73633;BME280;61927;50.080;14.418;2023-08-01T03:49:34;98196.19;;;18.30;74.10
73633;BME280;61927;50.080;14.418;2023-08-01T03:51:59;98202.03;;;18.33;73.35
73633;BME280;61927;50.080;14.418;2023-08-01T03:54:25;98197.34;;;18.35;73.64
73633;BME280;61927;50.080;14.418;2023-08-01T03:56:50;98195.13;;;18.39;73.11
73633;BME280;61927;50.080;14.418;2023-08-01T03:59:17;98191.63;;;18.38;73.36
73633;BME280;61927;50.080;14.418;2023-08-01T04:01:43;98194.13;;;18.40;73.79
73633;BME280;61927;50.080;14.418;2023-08-01T04:04:10;98190.13;;;18.36;73.43
73633;BME280;61927;50.080;14.418;2023-08-01T04:06:35;98191.78;;;18.37;73.86
73633;BME280;61927;50.080;14.418;2023-08-01T04:09:01;98173.16;;;18.35;73.77
73633;BME280;61927;50.080;14.418;2023-08-01T04:11:27;98171.31;;;18.36;73.70
73633;BME280;61927;50.080;14.418;2023-08-01T04:13:55;98168.44;;;18.37;73.48
73633;BME280;61927;50.080;14.418;2023-08-01T04:16:21;98155.84;;;18.38;73.45
73633;BME280;61927;50.080;14.418;2023-08-01T04:18:47;98162.69;;;18.49;72.85
73633;BME280;61927;50.080;14.418;2023-08-01T04:21:14;98160.00;;;18.49;71.81
73633;BME280;61927;50.080;14.418;2023-08-01T04:23:41;98154.50;;;18.42;71.91
73633;BME280;61927;50.080;14.418;2023-08-01T04:26:06;98150.78;;;18.43;71.48
73633;BME280;61927;50.080;14.418;2023-08-01T04:28:33;98145.72;;;18.48;71.59
73633;BME280;61927;50.080;14.418;2023-08-01T04:30:58;98150.41;;;18.54;71.87
73633;BME280;61927;50.080;14.418;2023-08-01T04:33:24;98148.38;;;18.56;71.49
73633;BME280;61927;50.080;14.418;2023-08-01T04:35:49;98145.22;;;18.53;70.87
73633;BME280;61927;50.080;14.418;2023-08-01T04:38:16;98148.06;;;18.51;70.74
73633;BME280;61927;50.080;14.418;2023-08-01T04:40:42;98135.66;;;18.50;71.54
73633;BME280;61927;50.080;14.418;2023-08-01T04:43:08;98143.00;;;18.56;70.83
73633;BME280;61927;50.080;14.418;2023-08-01T04:45:33;98137.31;;;18.51;70.84
73633;BME280;61927;50.080;14.418;2023-08-01T04:47:59;98137.16;;;18.53;71.16
73633;BME280;61927;50.080;14.418;2023-08-01T04:50:24;98136.25;;;18.60;71.03
73633;BME280;61927;50.080;14.418;2023-08-01T04:52:50;98144.16;;;18.62;71.46
73633;BME280;61927;50.080;14.418;2023-08-01T04:55:15;98138.63;;;18.63;71.02
73633;BME280;61927;50.080;14.418;2023-08-01T04:57:41;98134.75;;;18.66;71.21
73633;BME280;61927;50.080;14.418;2023-08-01T05:00:10;98134.09;;;18.64;71.16
73633;BME280;61927;50.080;14.418;2023-08-01T05:02:36;98134.44;;;18.61;71.46
73633;BME280;61927;50.080;14.418;2023-08-01T05:05:02;98123.84;;;18.59;71.06
73633;BME280;61927;50.080;14.418;2023-08-01T05:07:28;98122.81;;;18.60;70.46
73633;BME280;61927;50.080;14.418;2023-08-01T05:09:53;98116.78;;;18.58;70.66
73633;BME280;61927;50.080;14.418;2023-08-01T05:12:19;98117.63;;;18.59;70.80
73633;BME280;61927;50.080;14.418;2023-08-01T05:14:44;98113.78;;;18.61;70.17
73633;BME280;61927;50.080;14.418;2023-08-01T05:17:10;98104.00;;;18.68;69.89
73633;BME280;61927;50.080;14.418;2023-08-01T05:19:35;98109.66;;;18.74;69.96
73633;BME280;61927;50.080;14.418;2023-08-01T05:22:01;98103.22;;;18.83;69.05
73633;BME280;61927;50.080;14.418;2023-08-01T05:24:27;98098.97;;;18.88;68.77
73633;BME280;61927;50.080;14.418;2023-08-01T05:26:53;98089.91;;;18.89;68.96
73633;BME280;61927;50.080;14.418;2023-08-01T05:29:18;98091.75;;;18.89;69.50
73633;BME280;61927;50.080;14.418;2023-08-01T05:31:44;98095.63;;;18.86;69.64
73633;BME280;61927;50.080;14.418;2023-08-01T05:34:09;98092.75;;;18.88;69.48
73633;BME280;61927;50.080;14.418;2023-08-01T05:36:35;98097.13;;;18.89;69.21
73633;BME280;61927;50.080;14.418;2023-08-01T05:39:02;98089.72;;;18.91;69.34
73633;BME280;61927;50.080;14.418;2023-08-01T05:41:29;98087.88;;;18.91;68.75
73633;BME280;61927;50.080;14.418;2023-08-01T05:43:54;98083.31;;;18.92;69.25
73633;BME280;61927;50.080;14.418;2023-08-01T05:46:20;98080.81;;;18.90;69.19
73633;BME280;61927;50.080;14.418;2023-08-01T05:48:46;98069.22;;;18.90;69.60
73633;BME280;61927;50.080;14.418;2023-08-01T05:51:11;98078.41;;;18.95;69.00
73633;BME280;61927;50.080;14.418;2023-08-01T05:53:37;98081.22;;;19.02;68.78
73633;BME280;61927;50.080;14.418;2023-08-01T05:56:03;98075.94;;;19.09;68.21
73633;BME280;61927;50.080;14.418;2023-08-01T05:58:30;98072.44;;;19.08;68.20
73633;BME280;61927;50.080;14.418;2023-08-01T06:00:56;98063.72;;;19.06;68.50
73633;BME280;61927;50.080;14.418;2023-08-01T06:03:21;98054.63;;;19.07;68.14
73633;BME280;61927;50.080;14.418;2023-08-01T06:05:47;98052.22;;;19.12;68.14
73633;BME280;61927;50.080;14.418;2023-08-01T06:08:12;98055.19;;;19.17;68.51
73633;BME280;61927;50.080;14.418;2023-08-01T06:10:41;98052.44;;;19.25;67.82
73633;BME280;61927;50.080;14.418;2023-08-01T06:13:07;98041.47;;;19.27;67.74
73633;BME280;61927;50.080;14.418;2023-08-01T06:15:33;98042.97;;;19.29;68.10
73633;BME280;61927;50.080;14.418;2023-08-01T06:17:58;98049.66;;;19.33;68.64
73633;BME280;61927;50.080;14.418;2023-08-01T06:20:24;98040.94;;;19.31;68.30
73633;BME280;61927;50.080;14.418;2023-08-01T06:22:50;98046.69;;;19.28;68.95
73633;BME280;61927;50.080;14.418;2023-08-01T06:25:18;98037.97;;;19.26;68.75
73633;BME280;61927;50.080;14.418;2023-08-01T06:27:44;98040.00;;;19.24;69.71
73633;BME280;61927;50.080;14.418;2023-08-01T06:30:10;98033.78;;;19.24;69.59
73633;BME280;61927;50.080;14.418;2023-08-01T06:32:36;98038.50;;;19.22;69.18
73633;BME280;61927;50.080;14.418;2023-08-01T06:35:01;98040.38;;;19.21;69.92
73633;BME280;61927;50.080;14.418;2023-08-01T06:37:27;98039.53;;;19.21;69.22
73633;BME280;61927;50.080;14.418;2023-08-01T06:39:54;98039.06;;;19.17;69.32
73633;BME280;61927;50.080;14.418;2023-08-01T06:42:20;98036.84;;;19.21;69.67
73633;BME280;61927;50.080;14.418;2023-08-01T06:44:46;98024.88;;;19.23;69.39
73633;BME280;61927;50.080;14.418;2023-08-01T06:47:11;98032.59;;;19.26;69.77
73633;BME280;61927;50.080;14.418;2023-08-01T06:49:37;98027.19;;;19.26;69.12
73633;BME280;61927;50.080;14.418;2023-08-01T06:52:02;98023.97;;;19.31;69.75
73633;BME280;61927;50.080;14.418;2023-08-01T06:54:28;98019.41;;;19.31;68.67
73633;BME280;61927;50.080;14.418;2023-08-01T06:56:54;98012.19;;;19.32;69.09
73633;BME280;61927;50.080;14.418;2023-08-01T06:59:19;98009.31;;;19.33;69.04
73633;BME280;61927;50.080;14.418;2023-08-01T07:01:45;98013.00;;;19.32;69.00
73633;BME280;61927;50.080;14.418;2023-08-01T07:04:11;98007.25;;;19.35;68.78
73633;BME280;61927;50.080;14.418;2023-08-01T07:06:36;98006.53;;;19.42;69.54
73633;BME280;61927;50.080;14.418;2023-08-01T07:09:02;98008.38;;;19.41;69.86
73633;BME280;61927;50.080;14.418;2023-08-01T07:11:28;98005.03;;;19.39;69.97
73633;BME280;61927;50.080;14.418;2023-08-01T07:13:53;98010.59;;;19.38;70.91
73633;BME280;61927;50.080;14.418;2023-08-01T07:16:19;98019.13;;;19.41;70.58
73633;BME280;61927;50.080;14.418;2023-08-01T07:18:44;98013.94;;;19.40;70.71
73633;BME280;61927;50.080;14.418;2023-08-01T07:21:10;98014.59;;;19.42;70.47
73633;BME280;61927;50.080;14.418;2023-08-01T07:23:36;98019.59;;;19.45;71.04
73633;BME280;61927;50.080;14.418;2023-08-01T07:26:02;98020.25;;;19.47;70.70
73633;BME280;61927;50.080;14.418;2023-08-01T07:28:27;98027.13;;;19.49;70.29
73633;BME280;61927;50.080;14.418;2023-08-01T07:31:03;98024.91;;;19.53;70.49
73633;BME280;61927;50.080;14.418;2023-08-01T07:33:31;98022.22;;;19.53;70.03
73633;BME280;61927;50.080;14.418;2023-08-01T07:35:57;98023.59;;;19.49;70.38
73633;BME280;61927;50.080;14.418;2023-08-01T07:38:23;98024.78;;;19.46;70.77
73633;BME280;61927;50.080;14.418;2023-08-01T07:40:48;98025.44;;;19.48;71.28
73633;BME280;61927;50.080;14.418;2023-08-01T07:43:14;98017.19;;;19.50;71.75
73633;BME280;61927;50.080;14.418;2023-08-01T07:45:40;98027.75;;;19.51;71.32
73633;BME280;61927;50.080;14.418;2023-08-01T07:48:06;98018.41;;;19.47;72.01
73633;BME280;61927;50.080;14.418;2023-08-01T07:50:32;98018.22;;;19.49;71.54
73633;BME280;61927;50.080;14.418;2023-08-01T07:52:57;98018.84;;;19.51;71.45
73633;BME280;61927;50.080;14.418;2023-08-01T07:55:23;98014.50;;;19.50;71.15
73633;BME280;61927;50.080;14.418;2023-08-01T07:57:49;98015.81;;;19.54;71.55
73633;BME280;61927;50.080;14.418;2023-08-01T08:00:17;98020.28;;;19.61;71.35
73633;BME280;61927;50.080;14.418;2023-08-01T08:02:44;98021.13;;;19.62;70.90
73633;BME280;61927;50.080;14.418;2023-08-01T08:05:10;98024.44;;;19.64;70.60
73633;BME280;61927;50.080;14.418;2023-08-01T08:07:37;98016.19;;;19.65;70.63
73633;BME280;61927;50.080;14.418;2023-08-01T08:10:04;98024.06;;;19.67;71.51
73633;BME280;61927;50.080;14.418;2023-08-01T08:12:30;98028.25;;;19.70;70.20
73633;BME280;61927;50.080;14.418;2023-08-01T08:14:56;98025.94;;;19.66;70.45
73633;BME280;61927;50.080;14.418;2023-08-01T08:17:21;98030.47;;;19.66;71.19
73633;BME280;61927;50.080;14.418;2023-08-01T08:19:47;98020.09;;;19.63;70.92
73633;BME280;61927;50.080;14.418;2023-08-01T08:22:12;98015.28;;;19.58;71.60
73633;BME280;61927;50.080;14.418;2023-08-01T08:24:38;98020.47;;;19.60;71.63
73633;BME280;61927;50.080;14.418;2023-08-01T08:27:04;98021.13;;;19.62;71.67
73633;BME280;61927;50.080;14.418;2023-08-01T08:29:30;98022.03;;;19.69;71.45
73633;BME280;61927;50.080;14.418;2023-08-01T08:31:56;98028.72;;;19.73;70.31
73633;BME280;61927;50.080;14.418;2023-08-01T08:34:22;98015.91;;;19.75;69.97
73633;BME280;61927;50.080;14.418;2023-08-01T08:36:47;98013.47;;;19.80;70.26
73633;BME280;61927;50.080;14.418;2023-08-01T08:39:15;98012.25;;;19.83;70.42
73633;BME280;61927;50.080;14.418;2023-08-01T08:41:52;98023.13;;;19.89;70.39
73633;BME280;61927;50.080;14.418;2023-08-01T08:44:19;98012.81;;;19.93;69.77
73633;BME280;61927;50.080;14.418;2023-08-01T08:46:54;98011.41;;;19.97;69.78
73633;BME280;61927;50.080;14.418;2023-08-01T08:49:21;98015.97;;;19.96;69.94
73633;BME280;61927;50.080;14.418;2023-08-01T08:51:48;98027.94;;;19.94;69.70
73633;BME280;61927;50.080;14.418;2023-08-01T08:54:15;98027.56;;;19.97;69.66
73633;BME280;61927;50.080;14.418;2023-08-01T08:56:42;98024.88;;;19.97;69.39
73633;BME280;61927;50.080;14.418;2023-08-01T08:59:10;98024.50;;;20.00;69.84
73633;BME280;61927;50.080;14.418;2023-08-01T09:01:37;98030.25;;;19.97;68.99
73633;BME280;61927;50.080;14.418;2023-08-01T09:04:03;98037.50;;;19.96;69.62
73633;BME280;61927;50.080;14.418;2023-08-01T09:06:34;98038.59;;;20.02;69.42
73633;BME280;61927;50.080;14.418;2023-08-01T09:09:13;98027.25;;;20.07;68.91
73633;BME280;61927;50.080;14.418;2023-08-01T09:11:45;98027.78;;;20.17;68.00
73633;BME280;61927;50.080;14.418;2023-08-01T09:14:11;98031.97;;;20.19;67.79
73633;BME280;61927;50.080;14.418;2023-08-01T09:16:37;98027.66;;;20.25;67.99
73633;BME280;61927;50.080;14.418;2023-08-01T09:19:05;98024.41;;;20.29;68.02
73633;BME280;61927;50.080;14.418;2023-08-01T09:21:33;98023.56;;;20.29;67.84
73633;BME280;61927;50.080;14.418;2023-08-01T09:24:16;98024.84;;;20.33;67.30
73633;BME280;61927;50.080;14.418;2023-08-01T09:26:43;98032.19;;;20.39;67.19
73633;BME280;61927;50.080;14.418;2023-08-01T09:29:09;98024.00;;;20.47;66.82
73633;BME280;61927;50.080;14.418;2023-08-01T09:31:40;98021.31;;;20.47;65.79
73633;BME280;61927;50.080;14.418;2023-08-01T09:34:17;98023.34;;;20.45;66.06
73633;BME280;61927;50.080;14.418;2023-08-01T09:36:43;98027.00;;;20.59;66.02
73633;BME280;61927;50.080;14.418;2023-08-01T09:39:18;98022.78;;;20.71;64.94
73633;BME280;61927;50.080;14.418;2023-08-01T09:41:45;98014.94;;;20.76;64.21
73633;BME280;61927;50.080;14.418;2023-08-01T09:44:16;98024.94;;;20.82;64.14
73633;BME280;61927;50.080;14.418;2023-08-01T09:46:42;98024.75;;;20.84;63.80
73633;BME280;61927;50.080;14.418;2023-08-01T09:49:10;98011.06;;;20.85;63.34
73633;BME280;61927;50.080;14.418;2023-08-01T09:51:56;98011.97;;;20.92;63.20
73633;BME280;61927;50.080;14.418;2023-08-01T09:54:23;98013.28;;;21.03;63.00
73633;BME280;61927;50.080;14.418;2023-08-01T09:56:51;98007.09;;;21.09;62.63
73633;BME280;61927;50.080;14.418;2023-08-01T09:59:26;98005.88;;;21.12;62.20
73633;BME280;61927;50.080;14.418;2023-08-01T10:01:56;98005.69;;;21.13;62.21
73633;BME280;61927;50.080;14.418;2023-08-01T10:04:32;98006.63;;;21.27;61.49
73633;BME280;61927;50.080;14.418;2023-08-01T10:07:04;98001.13;;;21.42;60.76
73633;BME280;61927;50.080;14.418;2023-08-01T10:09:33;97996.78;;;21.47;60.81
73633;BME280;61927;50.080;14.418;2023-08-01T10:12:01;98004.09;;;21.53;61.10
73633;BME280;61927;50.080;14.418;2023-08-01T10:14:27;98006.00;;;21.59;61.15
73633;BME280;61927;50.080;14.418;2023-08-01T10:16:53;97999.16;;;21.64;60.92
73633;BME280;61927;50.080;14.418;2023-08-01T10:19:20;97996.25;;;21.65;60.05
73633;BME280;61927;50.080;14.418;2023-08-01T10:21:47;97999.16;;;21.64;60.32
73633;BME280;61927;50.080;14.418;2023-08-01T10:24:13;97999.81;;;21.72;59.40
73633;BME280;61927;50.080;14.418;2023-08-01T10:26:39;98005.44;;;21.71;59.07
73633;BME280;61927;50.080;14.418;2023-08-01T10:29:05;97989.47;;;21.76;59.35
73633;BME280;61927;50.080;14.418;2023-08-01T10:31:30;97983.47;;;21.87;59.38
73633;BME280;61927;50.080;14.418;2023-08-01T10:34:12;97969.81;;;22.02;59.00
73633;BME280;61927;50.080;14.418;2023-08-01T10:36:38;97972.13;;;22.05;57.78
73633;BME280;61927;50.080;14.418;2023-08-01T10:39:03;97968.00;;;22.09;58.30
73633;BME280;61927;50.080;14.418;2023-08-01T10:41:31;97961.34;;;22.11;58.74
73633;BME280;61927;50.080;14.418;2023-08-01T10:44:08;97950.31;;;22.06;58.37
73633;BME280;61927;50.080;14.418;2023-08-01T10:46:58;97946.53;;;22.01;58.92
73633;BME280;61927;50.080;14.418;2023-08-01T10:49:39;97930.16;;;22.02;59.18
73633;BME280;61927;50.080;14.418;2023-08-01T10:52:22;97939.31;;;22.08;58.56
73633;BME280;61927;50.080;14.418;2023-08-01T10:57:23;97925.63;;;22.29;58.37
73633;BME280;61927;50.080;14.418;2023-08-01T10:59:49;97945.16;;;22.31;58.39
73633;BME280;61927;50.080;14.418;2023-08-01T11:02:23;97948.09;;;22.36;58.17
73633;BME280;61927;50.080;14.418;2023-08-01T11:07:29;97939.38;;;22.47;58.15
73633;BME280;61927;50.080;14.418;2023-08-01T11:10:08;97943.13;;;22.53;56.51
73633;BME280;61927;50.080;14.418;2023-08-01T11:12:41;97931.47;;;22.52;55.77
73633;BME280;61927;50.080;14.418;2023-08-01T11:15:09;97932.31;;;22.60;56.00
73633;BME280;61927;50.080;14.418;2023-08-01T11:17:39;97910.88;;;22.71;55.95
73633;BME280;61927;50.080;14.418;2023-08-01T11:20:07;97909.00;;;22.72;55.42
73633;BME280;61927;50.080;14.418;2023-08-01T11:22:38;97904.41;;;22.79;55.32
73633;BME280;61927;50.080;14.418;2023-08-01T11:25:04;97903.81;;;22.83;55.62
73633;BME280;61927;50.080;14.418;2023-08-01T11:27:31;97906.09;;;22.93;55.31
73633;BME280;61927;50.080;14.418;2023-08-01T11:29:56;97899.66;;;22.87;55.61
73633;BME280;61927;50.080;14.418;2023-08-01T11:32:32;97900.91;;;22.85;55.62
73633;BME280;61927;50.080;14.418;2023-08-01T11:34:59;97895.91;;;22.88;54.87
73633;BME280;61927;50.080;14.418;2023-08-01T11:37:26;97910.47;;;22.94;54.91
73633;BME280;61927;50.080;14.418;2023-08-01T11:39:51;97906.09;;;22.86;54.56
73633;BME280;61927;50.080;14.418;2023-08-01T11:42:17;97914.22;;;22.80;54.83
73633;BME280;61927;50.080;14.418;2023-08-01T11:44:44;97905.88;;;22.68;55.18
73633;BME280;61927;50.080;14.418;2023-08-01T11:47:11;97914.41;;;22.72;54.30
73633;BME280;61927;50.080;14.418;2023-08-01T11:49:37;97915.44;;;22.71;54.39
73633;BME280;61927;50.080;14.418;2023-08-01T11:52:04;97921.47;;;22.60;53.56
73633;BME280;61927;50.080;14.418;2023-08-01T11:54:29;97923.34;;;22.59;53.59
73633;BME280;61927;50.080;14.418;2023-08-01T11:57:00;97928.97;;;22.64;53.63
73633;BME280;61927;50.080;14.418;2023-08-01T11:59:26;97928.34;;;22.75;53.37
73633;BME280;61927;50.080;14.418;2023-08-01T12:01:52;97925.66;;;22.88;52.99
73633;BME280;61927;50.080;14.418;2023-08-01T12:04:25;97923.13;;;23.00;53.05
73633;BME280;61927;50.080;14.418;2023-08-01T12:06:51;97922.88;;;23.22;52.75
73633;BME280;61927;50.080;14.418;2023-08-01T12:09:19;97931.78;;;23.42;51.61
73633;BME280;61927;50.080;14.418;2023-08-01T12:11:45;97925.34;;;23.36;51.06
73633;BME280;61927;50.080;14.418;2023-08-01T12:14:13;97934.94;;;23.26;51.86
73633;BME280;61927;50.080;14.418;2023-08-01T12:16:44;97931.44;;;23.18;52.09
73633;BME280;61927;50.080;14.418;2023-08-01T12:19:10;97933.50;;;23.16;52.23
73633;BME280;61927;50.080;14.418;2023-08-01T12:21:36;97937.22;;;23.29;52.47
73633;BME280;61927;50.080;14.418;2023-08-01T12:24:02;97934.25;;;23.43;51.86
73633;BME280;61927;50.080;14.418;2023-08-01T12:26:28;97925.66;;;23.66;51.05
73633;BME280;61927;50.080;14.418;2023-08-01T12:28:54;97925.16;;;23.82;50.30
73633;BME280;61927;50.080;14.418;2023-08-01T12:31:21;97919.94;;;23.88;49.72
73633;BME280;61927;50.080;14.418;2023-08-01T12:33:47;97936.38;;;23.93;49.80
73633;BME280;61927;50.080;14.418;2023-08-01T12:36:14;97934.53;;;23.87;49.83
73633;BME280;61927;50.080;14.418;2023-08-01T12:38:40;97933.09;;;23.84;49.63
73633;BME280;61927;50.080;14.418;2023-08-01T12:41:06;97927.88;;;23.82;49.73
73633;BME280;61927;50.080;14.418;2023-08-01T12:43:32;97917.69;;;23.78;50.04
73633;BME280;61927;50.080;14.418;2023-08-01T12:45:57;97922.06;;;23.79;49.85
73633;BME280;61927;50.080;14.418;2023-08-01T12:48:26;97933.09;;;23.84;50.10
73633;BME280;61927;50.080;14.418;2023-08-01T12:50:52;97922.94;;;23.73;50.29
73633;BME280;61927;50.080;14.418;2023-08-01T12:53:18;97926.28;;;23.68;50.43